createdAt,value
2023-03-18T00:01:07.246Z,1.93
2023-03-18T00:03:36.253Z,1.93
2023-03-18T00:06:06.654Z,1.80
2023-03-18T00:08:34.808Z,1.77
2023-03-18T00:11:02.768Z,2.10
2023-03-18T00:13:30.649Z,1.97
2023-03-18T00:15:59.922Z,2.17
2023-03-18T00:18:28.187Z,2.10
2023-03-18T00:20:58.160Z,1.97
2023-03-18T00:23:26.395Z,2.10
2023-03-18T00:25:56.384Z,2.10
2023-03-18T00:28:24.695Z,1.83
2023-03-18T00:30:52.743Z,1.97
2023-03-18T00:33:22.211Z,2.13
2023-03-18T00:35:50.729Z,1.80
2023-03-18T00:38:21.693Z,2.10
2023-03-18T00:41:01.577Z,2.20
2023-03-18T00:43:33.765Z,1.87
2023-03-18T00:46:02.069Z,2.10
2023-03-18T00:48:31.514Z,2.07
2023-03-18T00:50:59.414Z,1.90
2023-03-18T00:53:27.350Z,2.03
2023-03-18T00:55:55.423Z,2.10
2023-03-18T00:58:24.572Z,2.27
2023-03-18T01:00:52.742Z,2.20
2023-03-18T01:03:20.772Z,2.00
2023-03-18T01:05:51.231Z,2.07
2023-03-18T01:08:19.325Z,2.10
2023-03-18T01:10:47.264Z,2.17
2023-03-18T01:13:15.230Z,1.93
2023-03-18T01:15:43.431Z,2.10
2023-03-18T01:18:12.299Z,2.10
2023-03-18T01:20:40.500Z,2.33
2023-03-18T01:23:09.885Z,2.00
2023-03-18T01:25:38.632Z,1.80
2023-03-18T01:28:06.973Z,2.20
2023-03-18T01:30:36.171Z,2.00
2023-03-18T01:33:05.355Z,2.37
2023-03-18T01:35:33.875Z,2.10
2023-03-18T01:38:02.575Z,1.97
2023-03-18T01:40:33.128Z,2.30
2023-03-18T01:43:07.322Z,2.20
2023-03-18T01:45:36.030Z,2.10
2023-03-18T01:48:03.991Z,2.40
2023-03-18T01:50:33.689Z,2.23
2023-03-18T01:53:06.443Z,2.10
2023-03-18T01:55:35.966Z,2.23
2023-03-18T01:58:10.136Z,2.27
2023-03-18T02:00:41.675Z,2.30
2023-03-18T02:03:09.580Z,2.00
2023-03-18T02:05:38.520Z,2.20
2023-03-18T02:08:06.808Z,2.03
2023-03-18T02:10:37.746Z,2.13
2023-03-18T02:13:08.548Z,2.37
2023-03-18T02:15:40.060Z,2.43
2023-03-18T02:18:10.774Z,2.20
2023-03-18T02:20:46.002Z,2.20
2023-03-18T02:23:23.767Z,2.40
2023-03-18T02:25:57.701Z,2.50
2023-03-18T02:28:28.620Z,2.80
2023-03-18T02:30:59.563Z,2.20
2023-03-18T02:33:30.701Z,2.50
2023-03-18T02:36:04.026Z,2.60
2023-03-18T02:38:31.959Z,2.03
2023-03-18T02:40:59.879Z,2.60
2023-03-18T02:43:30.494Z,2.40
2023-03-18T02:46:16.418Z,2.60
2023-03-18T02:48:47.041Z,2.30
2023-03-18T02:51:16.159Z,2.53
2023-03-18T02:53:44.759Z,2.47
2023-03-18T02:56:13.322Z,2.53
2023-03-18T02:58:42.709Z,2.40
2023-03-18T03:01:11.462Z,2.40
2023-03-18T03:03:40.716Z,2.93
2023-03-18T03:06:09.143Z,2.27
2023-03-18T03:08:37.206Z,2.67
2023-03-18T03:11:05.409Z,2.20
2023-03-18T03:13:33.638Z,2.70
2023-03-18T03:16:03.967Z,2.40
2023-03-18T03:18:32.074Z,2.60
2023-03-18T03:20:59.966Z,2.43
2023-03-18T03:23:28.418Z,2.40
2023-03-18T03:25:57.258Z,2.90
2023-03-18T03:28:25.271Z,2.73
2023-03-18T03:30:53.390Z,2.87
2023-03-18T03:33:22.996Z,2.70
2023-03-18T03:35:50.917Z,2.60
2023-03-18T03:38:18.922Z,3.00
2023-03-18T03:40:47.948Z,3.00
2023-03-18T03:43:17.115Z,2.50
2023-03-18T03:45:45.289Z,3.23
2023-03-18T03:48:13.843Z,3.13
2023-03-18T03:50:43.129Z,3.40
2023-03-18T03:53:11.468Z,3.20
2023-03-18T03:55:39.435Z,3.07
2023-03-18T03:58:07.690Z,3.20
2023-03-18T04:00:35.733Z,3.27
2023-03-18T04:03:04.237Z,3.37
2023-03-18T04:05:32.158Z,3.00
2023-03-18T04:08:01.613Z,3.33
2023-03-18T04:10:29.586Z,2.73
2023-03-18T04:12:57.677Z,3.10
2023-03-18T04:15:25.777Z,3.27
2023-03-18T04:17:53.667Z,4.30
2023-03-18T04:20:22.041Z,3.13
2023-03-18T04:22:49.962Z,3.43
2023-03-18T04:25:19.265Z,3.97
2023-03-18T04:27:47.209Z,3.13
2023-03-18T04:30:15.482Z,4.50
2023-03-18T04:32:43.462Z,3.33
2023-03-18T04:35:12.293Z,4.87
2023-03-18T04:37:40.172Z,4.07
2023-03-18T04:40:09.048Z,4.50
2023-03-18T04:42:38.342Z,4.40
2023-03-18T04:45:07.867Z,3.90
2023-03-18T04:47:36.063Z,4.30
2023-03-18T04:50:04.892Z,3.93
2023-03-18T04:52:33.681Z,4.33
2023-03-18T04:55:01.791Z,4.03
2023-03-18T04:57:29.896Z,4.10
2023-03-18T04:59:59.298Z,4.53
2023-03-18T05:02:27.203Z,4.40
2023-03-18T05:04:55.617Z,5.33
2023-03-18T05:07:23.528Z,4.30
2023-03-18T05:09:52.034Z,4.97
2023-03-18T05:12:19.953Z,4.50
2023-03-18T05:14:47.920Z,4.73
2023-03-18T05:17:17.374Z,4.70
2023-03-18T05:19:46.506Z,4.47
2023-03-18T05:22:15.257Z,4.77
2023-03-18T05:24:46.053Z,4.80
2023-03-18T05:27:14.955Z,4.70
2023-03-18T05:29:43.105Z,4.80
2023-03-18T05:32:12.717Z,4.77
2023-03-18T05:34:42.603Z,4.97
2023-03-18T05:37:12.181Z,5.10
2023-03-18T05:39:41.204Z,4.87
2023-03-18T05:42:10.148Z,5.10
2023-03-18T05:44:38.927Z,5.20
2023-03-18T05:47:07.424Z,5.63
2023-03-18T05:49:35.735Z,5.13
2023-03-18T05:52:05.209Z,4.73
2023-03-18T05:54:33.148Z,5.20
2023-03-18T05:57:01.085Z,4.70
2023-03-18T05:59:30.239Z,4.70
2023-03-18T06:01:58.254Z,4.70
2023-03-18T06:04:27.456Z,4.93
2023-03-18T06:06:57.050Z,4.37
2023-03-18T06:09:27.347Z,5.40
2023-03-18T06:11:55.382Z,5.10
2023-03-18T06:14:29.195Z,5.67
2023-03-18T06:16:57.269Z,5.93
2023-03-18T06:19:26.004Z,5.67
2023-03-18T06:21:53.944Z,5.73
2023-03-18T06:24:21.902Z,5.03
2023-03-18T06:26:51.850Z,4.93
2023-03-18T06:29:20.056Z,5.47
2023-03-18T06:31:47.919Z,5.10
2023-03-18T06:34:15.846Z,5.50
2023-03-18T06:36:43.747Z,5.03
2023-03-18T06:39:12.302Z,5.27
2023-03-18T06:41:40.224Z,5.33
2023-03-18T06:44:09.499Z,5.37
2023-03-18T06:46:37.514Z,5.10
2023-03-18T06:49:05.498Z,5.90
2023-03-18T06:51:34.365Z,5.30
2023-03-18T06:54:02.284Z,4.70
2023-03-18T06:56:30.747Z,5.33
2023-03-18T06:58:58.657Z,5.23
2023-03-18T07:01:30.145Z,4.70
2023-03-18T07:03:59.027Z,6.00
2023-03-18T07:06:27.064Z,5.93
2023-03-18T07:08:55.392Z,5.00
2023-03-18T07:11:23.380Z,5.77
2023-03-18T07:13:51.304Z,5.03
2023-03-18T07:16:19.240Z,5.13
2023-03-18T07:18:48.809Z,5.47
2023-03-18T07:21:16.843Z,5.33
2023-03-18T07:23:44.788Z,5.53
2023-03-18T07:26:13.312Z,5.10
2023-03-18T07:28:41.787Z,4.53
2023-03-18T07:31:09.856Z,5.43
2023-03-18T07:33:37.784Z,5.20
2023-03-18T07:36:07.529Z,5.40
2023-03-18T07:38:35.850Z,5.33
2023-03-18T07:41:04.020Z,5.30
2023-03-18T07:43:31.968Z,5.83
2023-03-18T07:45:59.878Z,4.67
2023-03-18T07:48:27.782Z,6.20
2023-03-18T07:50:55.685Z,5.63
2023-03-18T07:53:25.520Z,5.23
2023-03-18T07:55:53.411Z,5.50
2023-03-18T07:58:21.414Z,5.63
2023-03-18T08:00:49.561Z,5.90
2023-03-18T08:03:17.866Z,5.87
2023-03-18T08:05:45.997Z,6.00
2023-03-18T08:08:14.024Z,5.70
2023-03-18T08:10:43.365Z,5.50
2023-03-18T08:13:11.324Z,5.77
2023-03-18T08:15:39.190Z,6.23
2023-03-18T08:18:09.332Z,5.40
2023-03-18T08:20:38.306Z,5.70
2023-03-18T08:23:06.232Z,5.33
2023-03-18T08:25:35.046Z,5.53
2023-03-18T08:28:07.673Z,5.90
2023-03-18T08:30:35.821Z,5.67
2023-03-18T08:33:03.890Z,5.20
2023-03-18T08:35:32.017Z,6.00
2023-03-18T08:38:00.295Z,5.00
2023-03-18T08:40:28.296Z,5.23
2023-03-18T08:42:56.709Z,5.20
2023-03-18T08:45:27.265Z,5.67
2023-03-18T08:48:00.851Z,5.47
2023-03-18T08:50:29.740Z,5.97
2023-03-18T08:52:58.880Z,5.37
2023-03-18T08:55:31.192Z,5.63
2023-03-18T08:57:59.327Z,5.37
2023-03-18T09:00:29.495Z,5.20
2023-03-18T09:02:57.451Z,5.50
2023-03-18T09:05:25.965Z,5.80
2023-03-18T09:07:54.156Z,6.63
2023-03-18T09:10:22.223Z,6.13
2023-03-18T09:12:50.842Z,6.43
2023-03-18T09:15:20.858Z,6.43
2023-03-18T09:18:07.987Z,6.53
2023-03-18T09:20:38.979Z,6.27
2023-03-18T09:23:07.380Z,6.03
2023-03-18T09:25:35.502Z,5.47
2023-03-18T09:28:03.695Z,6.77
2023-03-18T09:30:31.966Z,6.53
2023-03-18T09:33:01.837Z,6.13
2023-03-18T09:35:30.572Z,7.27
2023-03-18T09:37:58.576Z,6.77
2023-03-18T09:40:28.784Z,6.07
2023-03-18T09:43:03.736Z,5.87
2023-03-18T09:45:35.220Z,7.73
2023-03-18T09:48:17.615Z,7.17
2023-03-18T09:50:49.219Z,6.47
2023-03-18T09:53:20.862Z,7.67
2023-03-18T09:55:51.224Z,7.00
2023-03-18T09:58:23.570Z,7.77
2023-03-18T10:00:54.292Z,6.80
2023-03-18T10:03:31.100Z,6.90
2023-03-18T10:06:02.823Z,7.57
2023-03-18T10:08:40.941Z,7.50
2023-03-18T10:11:15.367Z,7.37
2023-03-18T10:13:47.837Z,8.10
2023-03-18T10:16:23.633Z,7.53
2023-03-18T10:18:53.093Z,6.70
2023-03-18T10:21:28.266Z,6.93
2023-03-18T10:24:03.472Z,7.60
2023-03-18T10:26:33.435Z,6.33
2023-03-18T10:29:10.493Z,7.20
2023-03-18T10:31:49.277Z,7.50
2023-03-18T10:34:23.209Z,7.67
2023-03-18T10:36:52.256Z,8.03
2023-03-18T10:39:23.472Z,6.90
2023-03-18T10:41:53.778Z,7.23
2023-03-18T10:44:25.528Z,6.37
2023-03-18T10:47:00.692Z,6.90
2023-03-18T10:49:32.908Z,7.37
2023-03-18T10:52:06.157Z,6.60
2023-03-18T10:54:37.128Z,6.53
2023-03-18T10:57:05.398Z,6.67
2023-03-18T10:59:33.572Z,6.77
2023-03-18T11:02:05.068Z,6.50
2023-03-18T11:04:40.174Z,6.40
2023-03-18T11:07:13.885Z,6.67
2023-03-18T11:09:42.473Z,6.10
2023-03-18T11:12:18.986Z,6.13
2023-03-18T11:14:49.027Z,5.50
2023-03-18T11:17:22.312Z,5.57
2023-03-18T11:20:02.053Z,5.40
2023-03-18T11:22:32.176Z,4.80
2023-03-18T11:25:06.855Z,5.23
2023-03-18T11:27:39.133Z,4.77
2023-03-18T11:30:21.416Z,5.23
2023-03-18T11:33:04.532Z,4.70
2023-03-18T11:35:39.908Z,4.63
2023-03-18T11:38:08.023Z,4.13
2023-03-18T11:40:36.252Z,5.07
2023-03-18T11:43:05.171Z,4.50
2023-03-18T11:45:52.194Z,4.43
2023-03-18T11:48:30.476Z,4.50
2023-03-18T11:51:27.297Z,5.10
2023-03-18T11:54:13.486Z,5.13
2023-03-18T11:56:44.133Z,5.47
2023-03-18T11:59:29.092Z,5.00
2023-03-18T12:02:04.922Z,4.97
2023-03-18T12:04:46.102Z,5.37
2023-03-18T12:07:35.243Z,4.50
2023-03-18T12:10:15.154Z,5.10
2023-03-18T12:12:54.333Z,4.93
2023-03-18T12:15:34.045Z,5.10
2023-03-18T12:18:09.234Z,5.60
2023-03-18T12:20:44.865Z,4.80
2023-03-18T12:23:29.805Z,5.93
2023-03-18T12:26:04.464Z,5.90
2023-03-18T12:28:50.065Z,6.57
2023-03-18T12:31:33.523Z,6.83
2023-03-18T12:34:03.070Z,5.77
2023-03-18T12:36:45.420Z,6.00
2023-03-18T12:39:43.402Z,6.47
2023-03-18T12:42:13.688Z,5.80
2023-03-18T12:44:54.561Z,6.50
2023-03-18T12:47:25.745Z,6.20
2023-03-18T12:49:58.397Z,7.63
2023-03-18T12:52:31.292Z,7.37
2023-03-18T12:55:04.027Z,6.20
2023-03-18T12:57:42.077Z,7.27
2023-03-18T13:00:20.858Z,7.27
2023-03-18T13:02:54.117Z,6.97
2023-03-18T13:05:27.602Z,5.80
2023-03-18T13:08:49.465Z,6.10
2023-03-18T13:11:49.356Z,7.67
2023-03-18T13:14:25.872Z,7.93
2023-03-18T13:16:54.878Z,8.07
2023-03-18T13:19:24.125Z,7.83
2023-03-18T13:21:57.555Z,8.17
2023-03-18T13:24:45.133Z,8.03
2023-03-18T13:27:33.220Z,8.10
2023-03-18T13:30:06.752Z,7.80
2023-03-18T13:32:47.866Z,8.93
2023-03-18T13:35:30.970Z,8.90
2023-03-18T13:38:12.383Z,8.07
2023-03-18T13:40:51.130Z,8.43
2023-03-18T13:43:22.286Z,7.37
2023-03-18T13:45:52.063Z,7.80
2023-03-18T13:48:22.859Z,6.83
2023-03-18T13:50:52.799Z,6.63
2023-03-18T13:53:26.309Z,6.17
2023-03-18T13:56:02.751Z,7.60
2023-03-18T13:58:38.064Z,7.67
2023-03-18T14:01:29.944Z,7.30
2023-03-18T14:04:01.291Z,6.43
2023-03-18T14:06:53.784Z,6.33
2023-03-18T14:09:49.267Z,5.93
2023-03-18T14:12:39.096Z,5.83
2023-03-18T14:15:38.911Z,6.73
2023-03-18T14:18:20.865Z,5.03
2023-03-18T14:20:54.173Z,6.10
2023-03-18T14:23:40.405Z,7.53
2023-03-18T14:26:22.376Z,6.80
2023-03-18T14:28:56.118Z,7.80
2023-03-18T14:31:33.748Z,6.10
2023-03-18T14:34:24.288Z,7.30
2023-03-18T14:37:27.766Z,6.80
2023-03-18T14:39:58.547Z,7.93
2023-03-18T14:42:32.894Z,7.40
2023-03-18T14:45:06.606Z,7.37
2023-03-18T14:47:43.507Z,8.07
2023-03-18T14:50:17.241Z,8.70
2023-03-18T14:52:48.815Z,6.73
2023-03-18T14:55:19.700Z,6.40
2023-03-18T14:57:47.992Z,6.77
2023-03-18T15:00:17.429Z,7.13
2023-03-18T15:02:47.149Z,7.27
2023-03-18T15:05:18.774Z,6.40
2023-03-18T15:07:52.761Z,8.27
2023-03-18T15:10:24.539Z,9.83
2023-03-18T15:12:59.499Z,7.40
2023-03-18T15:15:28.403Z,12.97
2023-03-18T15:17:57.711Z,9.90
2023-03-18T15:20:25.893Z,7.30
2023-03-18T15:22:54.211Z,6.50
2023-03-18T15:25:24.481Z,7.53
2023-03-18T15:27:52.609Z,7.20
2023-03-18T15:30:26.757Z,6.50
2023-03-18T15:33:04.654Z,6.03
2023-03-18T15:35:33.028Z,5.90
2023-03-18T15:38:07.901Z,6.83
2023-03-18T15:40:38.071Z,5.50
2023-03-18T15:43:13.527Z,4.97
2023-03-18T15:45:45.790Z,6.30
2023-03-18T15:48:23.301Z,6.40
2023-03-18T15:50:55.556Z,5.63
2023-03-18T15:53:24.904Z,18.50
2023-03-18T15:55:55.494Z,19.13
2023-03-18T15:58:26.837Z,14.47
2023-03-18T16:00:56.048Z,15.03
2023-03-18T16:03:26.560Z,7.50
2023-03-18T16:05:55.254Z,6.20
2023-03-18T16:08:24.080Z,6.10
2023-03-18T16:10:54.139Z,6.13
2023-03-18T16:13:26.709Z,4.83
2023-03-18T16:15:54.837Z,5.30
2023-03-18T16:18:23.136Z,4.90
2023-03-18T16:20:54.183Z,5.10
2023-03-18T16:23:24.118Z,4.80
2023-03-18T16:25:54.543Z,4.40
2023-03-18T16:28:25.012Z,5.50
2023-03-18T16:30:54.747Z,5.73
2023-03-18T16:33:23.857Z,6.20
2023-03-18T16:35:57.095Z,6.10
2023-03-18T16:38:25.663Z,6.13
2023-03-18T16:40:55.084Z,5.83
2023-03-18T16:43:25.040Z,4.97
2023-03-18T16:45:53.212Z,5.10
2023-03-18T16:48:22.623Z,5.00
2023-03-18T16:50:57.133Z,3.73
2023-03-18T16:53:27.846Z,5.37
2023-03-18T16:55:57.200Z,4.23
2023-03-18T16:58:28.136Z,6.33
2023-03-18T17:00:57.110Z,5.97
2023-03-18T17:03:25.044Z,6.03
2023-03-18T17:05:57.409Z,5.80
2023-03-18T17:08:25.412Z,5.53
2023-03-18T17:10:56.766Z,4.70
2023-03-18T17:13:26.272Z,4.60
2023-03-18T17:15:54.430Z,5.50
2023-03-18T17:18:24.670Z,5.10
2023-03-18T17:20:54.458Z,4.23
2023-03-18T17:23:26.862Z,4.80
2023-03-18T17:25:56.875Z,5.10
2023-03-18T17:28:29.959Z,5.10
2023-03-18T17:30:57.985Z,5.03
2023-03-18T17:33:27.916Z,5.03
2023-03-18T17:35:57.729Z,5.43
2023-03-18T17:38:25.906Z,4.90
2023-03-18T17:40:54.189Z,4.30
2023-03-18T17:43:27.468Z,3.60
2023-03-18T17:45:57.432Z,4.40
2023-03-18T17:48:26.457Z,4.60
2023-03-18T17:50:56.195Z,4.70
2023-03-18T17:53:28.475Z,4.33
2023-03-18T17:55:56.849Z,4.47
2023-03-18T17:58:27.462Z,4.20
2023-03-18T18:00:55.820Z,4.13
2023-03-18T18:03:25.743Z,5.53
2023-03-18T18:05:54.623Z,4.03
2023-03-18T18:08:24.771Z,4.23
2023-03-18T18:10:55.792Z,4.43
2023-03-18T18:13:25.111Z,4.67
2023-03-18T18:15:53.433Z,4.60
2023-03-18T18:18:25.989Z,4.73
2023-03-18T18:20:56.127Z,4.50
2023-03-18T18:23:29.023Z,5.13
2023-03-18T18:26:04.631Z,4.23
2023-03-18T18:28:35.021Z,4.70
2023-03-18T18:31:03.143Z,4.27
2023-03-18T18:33:31.987Z,4.20
2023-03-18T18:36:00.134Z,4.50
2023-03-18T18:38:28.446Z,4.13
2023-03-18T18:40:58.005Z,4.40
2023-03-18T18:43:27.661Z,6.57
2023-03-18T18:45:57.569Z,7.47
2023-03-18T18:48:28.615Z,4.77
2023-03-18T18:50:56.700Z,4.63
2023-03-18T18:53:27.012Z,4.60
2023-03-18T18:55:56.698Z,5.37
2023-03-18T18:58:30.236Z,4.47
2023-03-18T19:00:58.738Z,8.47
2023-03-18T19:03:30.449Z,9.23
2023-03-18T19:05:59.740Z,4.93
2023-03-18T19:08:29.316Z,5.50
2023-03-18T19:10:58.160Z,4.90
2023-03-18T19:13:28.400Z,6.23
2023-03-18T19:15:59.267Z,7.20
2023-03-18T19:18:29.291Z,6.87
2023-03-18T19:20:57.182Z,6.40
2023-03-18T19:23:28.046Z,5.97
2023-03-18T19:25:56.656Z,7.00
2023-03-18T19:29:01.359Z,7.23
2023-03-18T19:31:32.254Z,8.13
2023-03-18T19:34:01.003Z,6.27
2023-03-18T19:36:30.802Z,4.73
2023-03-18T19:38:59.984Z,4.67
2023-03-18T19:41:28.303Z,6.10
2023-03-18T19:43:59.791Z,7.67
2023-03-18T19:46:32.569Z,6.80
2023-03-18T19:49:00.975Z,6.70
2023-03-18T19:51:28.903Z,6.10
2023-03-18T19:53:56.821Z,5.80
2023-03-18T19:56:26.419Z,5.53
2023-03-18T19:58:55.443Z,5.70
2023-03-18T20:01:23.452Z,4.73
2023-03-18T20:04:47.443Z,5.30
2023-03-18T20:07:15.464Z,4.40
2023-03-18T20:09:43.820Z,6.10
2023-03-18T20:12:53.664Z,5.40
2023-03-18T20:15:23.379Z,5.10
2023-03-18T20:17:51.986Z,4.67
2023-03-18T20:20:23.895Z,4.73
2023-03-18T20:22:53.705Z,7.70
2023-03-18T20:25:22.824Z,6.97
2023-03-18T20:27:53.496Z,7.10
2023-03-18T20:30:27.963Z,6.07
2023-03-18T20:32:56.368Z,4.57
2023-03-18T20:35:28.558Z,6.10
2023-03-18T20:37:58.468Z,5.03
2023-03-18T20:40:27.795Z,6.97
2023-03-18T20:42:55.932Z,7.13
2023-03-18T20:45:25.000Z,7.60
2023-03-18T20:47:52.939Z,7.10
2023-03-18T20:50:22.201Z,6.60
2023-03-18T20:53:38.133Z,7.07
2023-03-18T20:56:07.372Z,5.70
2023-03-18T20:58:35.456Z,6.73
2023-03-18T21:01:03.719Z,5.60
2023-03-18T21:03:32.775Z,8.57
2023-03-18T21:06:03.593Z,7.70
2023-03-18T21:08:33.179Z,7.90
2023-03-18T21:11:02.365Z,7.83
2023-03-18T21:13:32.796Z,7.07
2023-03-18T21:16:02.012Z,8.83
2023-03-18T21:18:30.639Z,7.33
2023-03-18T21:20:58.957Z,7.53
2023-03-18T21:23:28.902Z,8.90
2023-03-18T21:25:58.235Z,8.93
2023-03-18T21:28:27.961Z,7.70
2023-03-18T21:30:58.298Z,8.03
2023-03-18T21:33:29.005Z,6.10
2023-03-18T21:35:57.766Z,7.33
2023-03-18T21:38:25.971Z,7.27
2023-03-18T21:40:54.204Z,7.80
2023-03-18T21:43:28.814Z,8.47
2023-03-18T21:45:57.234Z,9.20
2023-03-18T21:48:25.160Z,8.73
2023-03-18T21:50:53.202Z,9.13
2023-03-18T21:53:22.973Z,8.50
2023-03-18T21:55:51.623Z,8.77
2023-03-18T21:58:21.365Z,9.27
2023-03-18T22:00:53.253Z,9.63
2023-03-18T22:03:23.222Z,8.23
2023-03-18T22:05:52.934Z,8.97
2023-03-18T22:08:22.028Z,8.23
2023-03-18T22:10:51.083Z,9.30
2023-03-18T22:13:21.391Z,9.17
2023-03-18T22:15:51.683Z,8.40
2023-03-18T22:18:19.938Z,8.60
2023-03-18T22:20:49.400Z,7.73
2023-03-18T22:23:19.328Z,8.00
2023-03-18T22:25:48.716Z,9.00
2023-03-18T22:28:16.718Z,9.03
2023-03-18T22:30:47.302Z,7.50
2023-03-18T22:33:22.104Z,7.33
2023-03-18T22:35:50.119Z,8.17
2023-03-18T22:38:19.908Z,7.60
2023-03-18T22:40:48.856Z,9.00
2023-03-18T22:43:29.404Z,7.20
2023-03-18T22:45:57.456Z,6.77
2023-03-18T22:48:26.815Z,7.37
2023-03-18T22:50:55.097Z,7.03
2023-03-18T22:53:24.226Z,6.27
2023-03-18T22:55:52.885Z,6.67
2023-03-18T22:58:22.474Z,6.60
2023-03-18T23:00:51.136Z,7.43
2023-03-18T23:03:21.457Z,6.13
2023-03-18T23:05:52.660Z,5.60
2023-03-18T23:08:21.085Z,6.00
2023-03-18T23:10:50.534Z,7.10
2023-03-18T23:13:20.588Z,7.07
2023-03-18T23:15:48.537Z,6.80
2023-03-18T23:18:17.631Z,6.80
2023-03-18T23:20:47.105Z,6.67
2023-03-18T23:23:17.423Z,7.67
2023-03-18T23:25:46.750Z,8.27
2023-03-18T23:28:14.844Z,7.17
2023-03-18T23:30:44.081Z,7.23
2023-03-18T23:33:12.019Z,6.80
2023-03-18T23:35:40.110Z,7.10
2023-03-18T23:38:08.100Z,6.23
2023-03-18T23:40:37.553Z,6.63
2023-03-18T23:43:05.578Z,5.77
2023-03-18T23:45:34.041Z,6.97
2023-03-18T23:48:02.190Z,5.60
2023-03-18T23:50:30.186Z,6.57
2023-03-18T23:52:58.282Z,6.13
2023-03-18T23:55:34.352Z,5.67
2023-03-18T23:58:04.975Z,4.67
